sensor_id;sensor_type;location;lat;lon;timestamp;temperature;humidity
11538;DHT22;50159;49.426;11.182;2023-02-26T00:01:30;-0.30;99.90
11538;DHT22;50159;49.426;11.182;2023-02-26T00:04:00;-0.30;99.90
11538;DHT22;50159;49.426;11.182;2023-02-26T00:06:30;-0.30;99.90
11538;DHT22;50159;49.426;11.182;2023-02-26T00:08:58;-0.30;99.90
11538;DHT22;50159;49.426;11.182;2023-02-26T00:11:26;-0.30;99.90
11538;DHT22;50159;49.426;11.182;2023-02-26T00:13:53;-0.30;99.90
11538;DHT22;50159;49.426;11.182;2023-02-26T00:16:30;-0.30;99.90
11538;DHT22;50159;49.426;11.182;2023-02-26T00:19:04;-0.30;99.90
11538;DHT22;50159;49.426;11.182;2023-02-26T00:21:34;-0.40;99.90
11538;DHT22;50159;49.426;11.182;2023-02-26T00:24:02;-0.40;99.90
11538;DHT22;50159;49.426;11.182;2023-02-26T00:26:30;-0.40;99.90
11538;DHT22;50159;49.426;11.182;2023-02-26T00:28:58;-0.40;99.90
11538;DHT22;50159;49.426;11.182;2023-02-26T00:31:25;-0.50;99.90
11538;DHT22;50159;49.426;11.182;2023-02-26T00:33:54;-0.50;99.90
11538;DHT22;50159;49.426;11.182;2023-02-26T00:41:40;-0.50;99.90
11538;DHT22;50159;49.426;11.182;2023-02-26T00:44:07;-0.60;99.90
11538;DHT22;50159;49.426;11.182;2023-02-26T00:46:37;-0.50;99.90
11538;DHT22;50159;49.426;11.182;2023-02-26T00:49:32;-0.60;99.90
11538;DHT22;50159;49.426;11.182;2023-02-26T00:54:58;-0.60;99.90
11538;DHT22;50159;49.426;11.182;2023-02-26T00:57:24;-0.60;99.90
11538;DHT22;50159;49.426;11.182;2023-02-26T00:59:51;-0.70;99.90
11538;DHT22;50159;49.426;11.182;2023-02-26T01:02:18;-0.70;99.90
11538;DHT22;50159;49.426;11.182;2023-02-26T01:04:45;-0.80;99.90
11538;DHT22;50159;49.426;11.182;2023-02-26T01:07:14;-0.80;99.90
11538;DHT22;50159;49.426;11.182;2023-02-26T01:09:46;-0.90;99.90
11538;DHT22;50159;49.426;11.182;2023-02-26T01:12:14;-0.90;99.90
11538;DHT22;50159;49.426;11.182;2023-02-26T01:14:43;-1.00;99.90
11538;DHT22;50159;49.426;11.182;2023-02-26T01:17:32;-1.00;99.90
11538;DHT22;50159;49.426;11.182;2023-02-26T01:20:13;-1.10;99.90
11538;DHT22;50159;49.426;11.182;2023-02-26T01:23:09;-1.10;99.90
11538;DHT22;50159;49.426;11.182;2023-02-26T01:25:50;-1.10;99.90
11538;DHT22;50159;49.426;11.182;2023-02-26T01:28:24;-1.10;99.90
11538;DHT22;50159;49.426;11.182;2023-02-26T01:30:54;-1.10;99.90
11538;DHT22;50159;49.426;11.182;2023-02-26T01:36:11;-1.10;99.90
11538;DHT22;50159;49.426;11.182;2023-02-26T01:39:18;-1.10;99.90
11538;DHT22;50159;49.426;11.182;2023-02-26T01:41:50;-1.20;99.90
11538;DHT22;50159;49.426;11.182;2023-02-26T01:44:34;-1.20;99.90
11538;DHT22;50159;49.426;11.182;2023-02-26T01:47:28;-1.20;99.90
11538;DHT22;50159;49.426;11.182;2023-02-26T01:50:12;-1.30;99.90
11538;DHT22;50159;49.426;11.182;2023-02-26T01:55:45;-1.30;99.90
11538;DHT22;50159;49.426;11.182;2023-02-26T01:58:15;-1.40;99.90
11538;DHT22;50159;49.426;11.182;2023-02-26T02:00:43;-1.40;99.90
11538;DHT22;50159;49.426;11.182;2023-02-26T02:03:10;-1.40;99.90
11538;DHT22;50159;49.426;11.182;2023-02-26T02:05:51;-1.40;99.90
11538;DHT22;50159;49.426;11.182;2023-02-26T02:08:22;-1.40;99.90
11538;DHT22;50159;49.426;11.182;2023-02-26T02:10:50;-1.50;99.90
11538;DHT22;50159;49.426;11.182;2023-02-26T02:13:34;-1.50;99.90
11538;DHT22;50159;49.426;11.182;2023-02-26T02:31:48;-1.80;99.90
11538;DHT22;50159;49.426;11.182;2023-02-26T02:34:44;-1.80;99.90
11538;DHT22;50159;49.426;11.182;2023-02-26T02:37:24;-1.90;99.90
11538;DHT22;50159;49.426;11.182;2023-02-26T02:40:08;-1.90;99.90
11538;DHT22;50159;49.426;11.182;2023-02-26T02:43:10;-1.90;99.90
11538;DHT22;50159;49.426;11.182;2023-02-26T02:45:50;-2.00;99.90
11538;DHT22;50159;49.426;11.182;2023-02-26T02:48:28;-2.00;99.90
11538;DHT22;50159;49.426;11.182;2023-02-26T02:51:01;-2.00;99.90
11538;DHT22;50159;49.426;11.182;2023-02-26T02:53:36;-2.00;99.90
11538;DHT22;50159;49.426;11.182;2023-02-26T02:56:18;-2.00;99.90
11538;DHT22;50159;49.426;11.182;2023-02-26T02:59:00;-2.00;99.90
11538;DHT22;50159;49.426;11.182;2023-02-26T03:01:33;-2.10;99.90
11538;DHT22;50159;49.426;11.182;2023-02-26T03:04:07;-2.00;99.90
11538;DHT22;50159;49.426;11.182;2023-02-26T03:06:37;-2.00;99.90
11538;DHT22;50159;49.426;11.182;2023-02-26T03:09:06;-2.10;99.90
11538;DHT22;50159;49.426;11.182;2023-02-26T03:11:35;-2.00;99.90
11538;DHT22;50159;49.426;11.182;2023-02-26T03:14:03;-2.00;99.90
11538;DHT22;50159;49.426;11.182;2023-02-26T03:16:40;-2.10;99.90
11538;DHT22;50159;49.426;11.182;2023-02-26T03:19:39;-2.10;99.90
11538;DHT22;50159;49.426;11.182;2023-02-26T03:25:33;-2.00;99.90
11538;DHT22;50159;49.426;11.182;2023-02-26T03:31:25;-2.00;99.90
11538;DHT22;50159;49.426;11.182;2023-02-26T03:36:46;-2.00;99.90
11538;DHT22;50159;49.426;11.182;2023-02-26T03:39:27;-2.10;99.90
11538;DHT22;50159;49.426;11.182;2023-02-26T03:44:57;-2.20;99.90
11538;DHT22;50159;49.426;11.182;2023-02-26T03:47:28;-2.20;99.90
11538;DHT22;50159;49.426;11.182;2023-02-26T03:52:33;-2.30;99.90
11538;DHT22;50159;49.426;11.182;2023-02-26T03:55:21;-2.30;99.90
11538;DHT22;50159;49.426;11.182;2023-02-26T03:57:54;-2.40;99.90
11538;DHT22;50159;49.426;11.182;2023-02-26T04:00:21;-2.40;99.90
11538;DHT22;50159;49.426;11.182;2023-02-26T04:03:11;-2.40;99.90
11538;DHT22;50159;49.426;11.182;2023-02-26T04:05:47;-2.40;99.90
11538;DHT22;50159;49.426;11.182;2023-02-26T04:08:16;-2.30;99.90
11538;DHT22;50159;49.426;11.182;2023-02-26T04:10:58;-2.30;99.90
11538;DHT22;50159;49.426;11.182;2023-02-26T04:13:32;-2.20;99.90
11538;DHT22;50159;49.426;11.182;2023-02-26T04:15:59;-2.20;99.90
11538;DHT22;50159;49.426;11.182;2023-02-26T04:18:26;-2.10;99.90
11538;DHT22;50159;49.426;11.182;2023-02-26T04:20:52;-2.10;99.90
11538;DHT22;50159;49.426;11.182;2023-02-26T04:23:19;-2.00;99.90
11538;DHT22;50159;49.426;11.182;2023-02-26T04:25:46;-2.00;99.90
11538;DHT22;50159;49.426;11.182;2023-02-26T04:28:13;-2.00;99.90
11538;DHT22;50159;49.426;11.182;2023-02-26T04:30:40;-1.90;99.90
11538;DHT22;50159;49.426;11.182;2023-02-26T04:33:07;-1.90;99.90
11538;DHT22;50159;49.426;11.182;2023-02-26T04:35:34;-1.90;99.90
11538;DHT22;50159;49.426;11.182;2023-02-26T04:38:01;-1.90;99.90
11538;DHT22;50159;49.426;11.182;2023-02-26T04:40:27;-1.90;99.90
11538;DHT22;50159;49.426;11.182;2023-02-26T04:42:54;-1.90;99.90
11538;DHT22;50159;49.426;11.182;2023-02-26T04:45:21;-1.90;99.90
11538;DHT22;50159;49.426;11.182;2023-02-26T04:47:48;-1.80;99.90
11538;DHT22;50159;49.426;11.182;2023-02-26T04:50:15;-1.80;99.90
11538;DHT22;50159;49.426;11.182;2023-02-26T04:52:42;-1.80;99.90
11538;DHT22;50159;49.426;11.182;2023-02-26T04:55:08;-1.80;99.90
11538;DHT22;50159;49.426;11.182;2023-02-26T04:57:35;-1.80;99.90
11538;DHT22;50159;49.426;11.182;2023-02-26T05:00:03;-1.80;99.90
11538;DHT22;50159;49.426;11.182;2023-02-26T05:02:33;-1.90;99.90
11538;DHT22;50159;49.426;11.182;2023-02-26T05:05:00;-1.90;99.90
11538;DHT22;50159;49.426;11.182;2023-02-26T05:07:26;-2.00;99.90
11538;DHT22;50159;49.426;11.182;2023-02-26T05:09:53;-2.00;99.90
11538;DHT22;50159;49.426;11.182;2023-02-26T05:12:20;-2.00;99.90
11538;DHT22;50159;49.426;11.182;2023-02-26T05:14:47;-2.00;99.90
11538;DHT22;50159;49.426;11.182;2023-02-26T05:17:13;-2.00;99.90
11538;DHT22;50159;49.426;11.182;2023-02-26T05:19:40;-2.00;99.90
11538;DHT22;50159;49.426;11.182;2023-02-26T05:22:07;-2.00;99.90
11538;DHT22;50159;49.426;11.182;2023-02-26T05:24:34;-2.00;99.90
11538;DHT22;50159;49.426;11.182;2023-02-26T05:27:00;-1.90;99.90
11538;DHT22;50159;49.426;11.182;2023-02-26T05:29:27;-1.90;99.90
11538;DHT22;50159;49.426;11.182;2023-02-26T05:31:54;-1.80;99.90
11538;DHT22;50159;49.426;11.182;2023-02-26T05:34:21;-1.80;99.90
11538;DHT22;50159;49.426;11.182;2023-02-26T05:36:48;-1.80;99.90
11538;DHT22;50159;49.426;11.182;2023-02-26T05:39:15;-1.80;99.90
11538;DHT22;50159;49.426;11.182;2023-02-26T05:41:41;-1.80;99.90
11538;DHT22;50159;49.426;11.182;2023-02-26T05:44:08;-1.80;99.90
11538;DHT22;50159;49.426;11.182;2023-02-26T05:46:35;-1.70;99.90
11538;DHT22;50159;49.426;11.182;2023-02-26T05:49:02;-1.70;99.90
11538;DHT22;50159;49.426;11.182;2023-02-26T05:51:29;-1.70;99.90
11538;DHT22;50159;49.426;11.182;2023-02-26T05:53:55;-1.60;99.90
11538;DHT22;50159;49.426;11.182;2023-02-26T05:56:22;-1.60;99.90
11538;DHT22;50159;49.426;11.182;2023-02-26T05:58:49;-1.60;99.90
11538;DHT22;50159;49.426;11.182;2023-02-26T06:01:16;-1.60;99.90
11538;DHT22;50159;49.426;11.182;2023-02-26T06:03:43;-1.60;99.90
11538;DHT22;50159;49.426;11.182;2023-02-26T06:06:13;-1.50;99.90
11538;DHT22;50159;49.426;11.182;2023-02-26T06:08:46;-1.50;99.90
11538;DHT22;50159;49.426;11.182;2023-02-26T06:11:13;-1.50;99.90
11538;DHT22;50159;49.426;11.182;2023-02-26T06:13:40;-1.50;99.90
11538;DHT22;50159;49.426;11.182;2023-02-26T06:16:07;-1.50;99.90
11538;DHT22;50159;49.426;11.182;2023-02-26T06:18:34;-1.50;99.90
11538;DHT22;50159;49.426;11.182;2023-02-26T06:21:01;-1.50;99.90
11538;DHT22;50159;49.426;11.182;2023-02-26T06:23:28;-1.50;99.90
11538;DHT22;50159;49.426;11.182;2023-02-26T06:25:55;-1.40;99.90
11538;DHT22;50159;49.426;11.182;2023-02-26T06:28:22;-1.40;99.90
11538;DHT22;50159;49.426;11.182;2023-02-26T06:30:51;-1.40;99.90
11538;DHT22;50159;49.426;11.182;2023-02-26T06:33:19;-1.30;99.90
11538;DHT22;50159;49.426;11.182;2023-02-26T06:35:46;-1.30;99.90
11538;DHT22;50159;49.426;11.182;2023-02-26T06:38:13;-1.30;99.90
11538;DHT22;50159;49.426;11.182;2023-02-26T06:40:40;-1.30;99.90
11538;DHT22;50159;49.426;11.182;2023-02-26T06:43:07;-1.30;99.90
11538;DHT22;50159;49.426;11.182;2023-02-26T06:45:34;-1.30;99.90
11538;DHT22;50159;49.426;11.182;2023-02-26T06:48:01;-1.30;99.90
11538;DHT22;50159;49.426;11.182;2023-02-26T06:50:28;-1.30;99.90
11538;DHT22;50159;49.426;11.182;2023-02-26T06:52:55;-1.30;99.90
11538;DHT22;50159;49.426;11.182;2023-02-26T06:55:22;-1.30;99.90
11538;DHT22;50159;49.426;11.182;2023-02-26T06:57:56;-1.20;99.90
11538;DHT22;50159;49.426;11.182;2023-02-26T07:00:24;-1.20;99.90
11538;DHT22;50159;49.426;11.182;2023-02-26T07:02:51;-1.10;99.90
11538;DHT22;50159;49.426;11.182;2023-02-26T07:05:18;-1.10;99.90
11538;DHT22;50159;49.426;11.182;2023-02-26T07:07:45;-0.90;99.90
11538;DHT22;50159;49.426;11.182;2023-02-26T07:10:12;-0.80;99.90
11538;DHT22;50159;49.426;11.182;2023-02-26T07:12:39;-0.80;99.90
11538;DHT22;50159;49.426;11.182;2023-02-26T07:15:06;-0.70;99.90
11538;DHT22;50159;49.426;11.182;2023-02-26T07:17:34;-0.60;99.90
11538;DHT22;50159;49.426;11.182;2023-02-26T07:20:00;-0.60;99.90
11538;DHT22;50159;49.426;11.182;2023-02-26T07:22:32;-0.60;99.90
11538;DHT22;50159;49.426;11.182;2023-02-26T07:24:59;-0.60;99.90
11538;DHT22;50159;49.426;11.182;2023-02-26T07:27:26;-0.50;99.90
11538;DHT22;50159;49.426;11.182;2023-02-26T07:29:55;-0.50;99.90
11538;DHT22;50159;49.426;11.182;2023-02-26T07:32:22;-0.40;99.90
11538;DHT22;50159;49.426;11.182;2023-02-26T07:34:49;-0.40;99.90
11538;DHT22;50159;49.426;11.182;2023-02-26T07:37:16;-0.40;99.90
11538;DHT22;50159;49.426;11.182;2023-02-26T07:39:42;-0.30;99.90
11538;DHT22;50159;49.426;11.182;2023-02-26T07:42:09;-0.20;99.90
11538;DHT22;50159;49.426;11.182;2023-02-26T07:44:36;-0.20;99.90
11538;DHT22;50159;49.426;11.182;2023-02-26T07:47:03;-0.20;99.90
11538;DHT22;50159;49.426;11.182;2023-02-26T07:49:30;-0.20;99.90
11538;DHT22;50159;49.426;11.182;2023-02-26T07:51:59;-0.10;99.90
11538;DHT22;50159;49.426;11.182;2023-02-26T07:54:26;-0.10;99.90
11538;DHT22;50159;49.426;11.182;2023-02-26T07:56:53;0.00;99.90
11538;DHT22;50159;49.426;11.182;2023-02-26T07:59:20;0.10;99.90
11538;DHT22;50159;49.426;11.182;2023-02-26T08:01:47;0.10;99.90
11538;DHT22;50159;49.426;11.182;2023-02-26T08:04:14;0.20;99.90
11538;DHT22;50159;49.426;11.182;2023-02-26T08:06:41;0.30;99.90
11538;DHT22;50159;49.426;11.182;2023-02-26T08:09:08;0.50;99.90
11538;DHT22;50159;49.426;11.182;2023-02-26T08:11:35;0.90;99.90
11538;DHT22;50159;49.426;11.182;2023-02-26T08:14:06;0.50;99.90
11538;DHT22;50159;49.426;11.182;2023-02-26T08:16:33;0.30;99.90
11538;DHT22;50159;49.426;11.182;2023-02-26T08:19:00;0.20;99.90
11538;DHT22;50159;49.426;11.182;2023-02-26T08:21:27;0.10;99.90
11538;DHT22;50159;49.426;11.182;2023-02-26T08:23:53;0.00;99.90
11538;DHT22;50159;49.426;11.182;2023-02-26T08:26:20;0.00;99.90
11538;DHT22;50159;49.426;11.182;2023-02-26T08:28:47;0.00;99.90
11538;DHT22;50159;49.426;11.182;2023-02-26T08:31:14;0.20;99.90
11538;DHT22;50159;49.426;11.182;2023-02-26T08:33:42;0.50;99.90
11538;DHT22;50159;49.426;11.182;2023-02-26T08:36:09;1.10;99.90
11538;DHT22;50159;49.426;11.182;2023-02-26T08:38:36;1.60;99.90
11538;DHT22;50159;49.426;11.182;2023-02-26T08:41:03;2.00;99.90
11538;DHT22;50159;49.426;11.182;2023-02-26T08:43:30;2.40;99.90
11538;DHT22;50159;49.426;11.182;2023-02-26T08:45:57;2.70;99.90
11538;DHT22;50159;49.426;11.182;2023-02-26T08:48:24;2.70;99.60
11538;DHT22;50159;49.426;11.182;2023-02-26T08:50:51;2.50;98.10
11538;DHT22;50159;49.426;11.182;2023-02-26T08:53:18;2.40;97.50
11538;DHT22;50159;49.426;11.182;2023-02-26T08:55:49;2.10;96.90
11538;DHT22;50159;49.426;11.182;2023-02-26T08:58:18;2.00;98.00
11538;DHT22;50159;49.426;11.182;2023-02-26T09:00:45;1.90;98.80
11538;DHT22;50159;49.426;11.182;2023-02-26T09:03:12;1.90;98.20
11538;DHT22;50159;49.426;11.182;2023-02-26T09:05:39;1.90;98.40
11538;DHT22;50159;49.426;11.182;2023-02-26T09:08:07;1.80;98.90
11538;DHT22;50159;49.426;11.182;2023-02-26T09:10:34;1.80;99.10
11538;DHT22;50159;49.426;11.182;2023-02-26T09:13:01;1.80;98.80
11538;DHT22;50159;49.426;11.182;2023-02-26T09:15:28;1.80;98.60
11538;DHT22;50159;49.426;11.182;2023-02-26T09:17:54;1.90;99.90
11538;DHT22;50159;49.426;11.182;2023-02-26T09:20:22;2.10;99.90
11538;DHT22;50159;49.426;11.182;2023-02-26T09:22:49;2.40;99.90
11538;DHT22;50159;49.426;11.182;2023-02-26T09:25:16;2.60;98.30
11538;DHT22;50159;49.426;11.182;2023-02-26T09:27:42;2.70;96.60
11538;DHT22;50159;49.426;11.182;2023-02-26T09:30:10;2.90;96.90
11538;DHT22;50159;49.426;11.182;2023-02-26T09:32:37;3.40;97.00
11538;DHT22;50159;49.426;11.182;2023-02-26T09:35:04;3.70;94.90
11538;DHT22;50159;49.426;11.182;2023-02-26T09:37:32;3.80;92.20
11538;DHT22;50159;49.426;11.182;2023-02-26T09:39:59;3.80;91.10
11538;DHT22;50159;49.426;11.182;2023-02-26T09:45:45;3.60;88.50
11538;DHT22;50159;49.426;11.182;2023-02-26T09:48:17;3.70;85.60
11538;DHT22;50159;49.426;11.182;2023-02-26T09:50:51;3.50;82.70
11538;DHT22;50159;49.426;11.182;2023-02-26T09:53:32;3.40;83.10
11538;DHT22;50159;49.426;11.182;2023-02-26T09:56:07;3.30;82.50
11538;DHT22;50159;49.426;11.182;2023-02-26T09:58:40;3.20;80.20
11538;DHT22;50159;49.426;11.182;2023-02-26T10:01:25;3.10;79.30
11538;DHT22;50159;49.426;11.182;2023-02-26T10:07:27;2.80;80.60
11538;DHT22;50159;49.426;11.182;2023-02-26T10:10:32;2.70;81.30
11538;DHT22;50159;49.426;11.182;2023-02-26T10:13:36;2.70;83.00
11538;DHT22;50159;49.426;11.182;2023-02-26T10:16:27;2.80;82.70
11538;DHT22;50159;49.426;11.182;2023-02-26T10:19:15;2.70;81.80
11538;DHT22;50159;49.426;11.182;2023-02-26T10:21:59;2.80;83.20
11538;DHT22;50159;49.426;11.182;2023-02-26T10:24:43;2.70;79.20
11538;DHT22;50159;49.426;11.182;2023-02-26T10:27:16;2.40;79.40
11538;DHT22;50159;49.426;11.182;2023-02-26T10:30:03;2.30;81.20
11538;DHT22;50159;49.426;11.182;2023-02-26T10:35:40;2.20;82.40
11538;DHT22;50159;49.426;11.182;2023-02-26T10:38:16;2.30;83.40
11538;DHT22;50159;49.426;11.182;2023-02-26T10:41:01;2.50;83.60
11538;DHT22;50159;49.426;11.182;2023-02-26T10:52:30;3.00;76.40
11538;DHT22;50159;49.426;11.182;2023-02-26T10:57:46;2.90;75.90
11538;DHT22;50159;49.426;11.182;2023-02-26T11:00:19;2.90;76.00
11538;DHT22;50159;49.426;11.182;2023-02-26T11:02:49;3.00;75.70
11538;DHT22;50159;49.426;11.182;2023-02-26T11:05:22;3.30;76.00
11538;DHT22;50159;49.426;11.182;2023-02-26T11:07:56;3.50;72.80
11538;DHT22;50159;49.426;11.182;2023-02-26T11:10:41;3.70;69.40
11538;DHT22;50159;49.426;11.182;2023-02-26T11:13:24;3.70;69.30
11538;DHT22;50159;49.426;11.182;2023-02-26T11:15:55;3.70;68.10
11538;DHT22;50159;49.426;11.182;2023-02-26T11:18:26;3.50;67.50
11538;DHT22;50159;49.426;11.182;2023-02-26T11:20:58;3.40;67.00
11538;DHT22;50159;49.426;11.182;2023-02-26T11:23:29;3.20;67.60
11538;DHT22;50159;49.426;11.182;2023-02-26T11:26:15;3.00;69.70
11538;DHT22;50159;49.426;11.182;2023-02-26T11:28:48;3.20;73.20
11538;DHT22;50159;49.426;11.182;2023-02-26T11:31:21;3.80;71.40
11538;DHT22;50159;49.426;11.182;2023-02-26T11:34:02;4.40;70.90
11538;DHT22;50159;49.426;11.182;2023-02-26T11:36:32;5.20;69.70
11538;DHT22;50159;49.426;11.182;2023-02-26T11:39:17;5.70;67.20
11538;DHT22;50159;49.426;11.182;2023-02-26T11:41:49;6.30;66.60
11538;DHT22;50159;49.426;11.182;2023-02-26T11:49:55;5.30;60.50
11538;DHT22;50159;49.426;11.182;2023-02-26T11:52:41;4.70;65.60
11538;DHT22;50159;49.426;11.182;2023-02-26T11:55:32;4.90;67.70
11538;DHT22;50159;49.426;11.182;2023-02-26T11:58:16;5.20;66.70
11538;DHT22;50159;49.426;11.182;2023-02-26T12:00:45;5.50;64.20
11538;DHT22;50159;49.426;11.182;2023-02-26T12:03:22;5.80;61.30
11538;DHT22;50159;49.426;11.182;2023-02-26T12:05:51;6.00;59.60
11538;DHT22;50159;49.426;11.182;2023-02-26T12:20:18;5.50;58.80
11538;DHT22;50159;49.426;11.182;2023-02-26T12:23:12;5.80;59.10
11538;DHT22;50159;49.426;11.182;2023-02-26T12:31:58;6.00;54.00
11538;DHT22;50159;49.426;11.182;2023-02-26T12:34:58;5.30;55.30
11538;DHT22;50159;49.426;11.182;2023-02-26T12:37:59;4.70;56.00
11538;DHT22;50159;49.426;11.182;2023-02-26T12:44:08;4.50;56.60
11538;DHT22;50159;49.426;11.182;2023-02-26T13:08:49;4.20;58.50
11538;DHT22;50159;49.426;11.182;2023-02-26T13:11:46;4.20;58.50
11538;DHT22;50159;49.426;11.182;2023-02-26T13:20:57;3.80;59.30
11538;DHT22;50159;49.426;11.182;2023-02-26T13:23:35;3.70;59.90
11538;DHT22;50159;49.426;11.182;2023-02-26T13:26:18;4.30;62.70
11538;DHT22;50159;49.426;11.182;2023-02-26T13:31:57;5.80;56.90
11538;DHT22;50159;49.426;11.182;2023-02-26T13:34:39;6.30;51.90
11538;DHT22;50159;49.426;11.182;2023-02-26T13:37:21;6.40;52.70
11538;DHT22;50159;49.426;11.182;2023-02-26T13:40:29;6.20;52.20
11538;DHT22;50159;49.426;11.182;2023-02-26T13:43:31;5.80;51.90
11538;DHT22;50159;49.426;11.182;2023-02-26T13:49:18;4.70;54.60
11538;DHT22;50159;49.426;11.182;2023-02-26T13:52:01;4.60;55.00
11538;DHT22;50159;49.426;11.182;2023-02-26T13:54:41;4.50;56.40
11538;DHT22;50159;49.426;11.182;2023-02-26T13:57:23;5.10;56.40
11538;DHT22;50159;49.426;11.182;2023-02-26T13:59:56;5.00;53.20
11538;DHT22;50159;49.426;11.182;2023-02-26T14:02:53;4.70;53.70
11538;DHT22;50159;49.426;11.182;2023-02-26T14:05:53;4.40;54.40
11538;DHT22;50159;49.426;11.182;2023-02-26T14:08:44;4.40;55.60
11538;DHT22;50159;49.426;11.182;2023-02-26T14:19:30;4.60;54.40
11538;DHT22;50159;49.426;11.182;2023-02-26T14:22:21;4.20;53.70
11538;DHT22;50159;49.426;11.182;2023-02-26T14:24:57;4.00;54.00
11538;DHT22;50159;49.426;11.182;2023-02-26T14:27:39;3.90;54.70
11538;DHT22;50159;49.426;11.182;2023-02-26T14:32:44;3.70;56.00
11538;DHT22;50159;49.426;11.182;2023-02-26T14:35:19;4.00;57.40
11538;DHT22;50159;49.426;11.182;2023-02-26T14:37:59;6.50;56.20
11538;DHT22;50159;49.426;11.182;2023-02-26T14:40:35;8.00;46.70
11538;DHT22;50159;49.426;11.182;2023-02-26T14:43:09;7.80;46.10
11538;DHT22;50159;49.426;11.182;2023-02-26T14:45:43;7.20;45.80
11538;DHT22;50159;49.426;11.182;2023-02-26T14:48:17;6.30;47.60
11538;DHT22;50159;49.426;11.182;2023-02-26T14:56:18;4.60;51.30
11538;DHT22;50159;49.426;11.182;2023-02-26T14:59:10;4.40;52.10
11538;DHT22;50159;49.426;11.182;2023-02-26T15:14:18;3.50;56.20
11538;DHT22;50159;49.426;11.182;2023-02-26T15:20:20;3.50;57.90
11538;DHT22;50159;49.426;11.182;2023-02-26T15:25:51;3.60;56.10
11538;DHT22;50159;49.426;11.182;2023-02-26T15:28:25;3.50;56.20
11538;DHT22;50159;49.426;11.182;2023-02-26T15:30:55;3.20;56.50
11538;DHT22;50159;49.426;11.182;2023-02-26T15:33:24;3.00;57.10
11538;DHT22;50159;49.426;11.182;2023-02-26T15:35:53;2.80;57.40
11538;DHT22;50159;49.426;11.182;2023-02-26T15:38:20;2.60;57.40
11538;DHT22;50159;49.426;11.182;2023-02-26T15:40:51;2.50;57.70
11538;DHT22;50159;49.426;11.182;2023-02-26T15:43:26;2.40;58.00
11538;DHT22;50159;49.426;11.182;2023-02-26T15:45:56;2.30;58.00
11538;DHT22;50159;49.426;11.182;2023-02-26T15:48:28;2.30;58.10
11538;DHT22;50159;49.426;11.182;2023-02-26T15:51:00;2.20;58.70
11538;DHT22;50159;49.426;11.182;2023-02-26T15:53:37;2.30;59.20
11538;DHT22;50159;49.426;11.182;2023-02-26T15:56:11;2.60;59.20
11538;DHT22;50159;49.426;11.182;2023-02-26T15:58:51;2.90;58.70
11538;DHT22;50159;49.426;11.182;2023-02-26T16:01:22;2.90;57.40
11538;DHT22;50159;49.426;11.182;2023-02-26T16:03:52;2.70;57.10
11538;DHT22;50159;49.426;11.182;2023-02-26T16:06:32;2.60;57.70
11538;DHT22;50159;49.426;11.182;2023-02-26T16:09:04;2.40;58.00
11538;DHT22;50159;49.426;11.182;2023-02-26T16:11:36;2.30;58.70
11538;DHT22;50159;49.426;11.182;2023-02-26T16:14:14;2.30;59.20
11538;DHT22;50159;49.426;11.182;2023-02-26T16:16:52;2.30;58.90
11538;DHT22;50159;49.426;11.182;2023-02-26T16:19:44;2.10;58.80
11538;DHT22;50159;49.426;11.182;2023-02-26T16:25:07;1.80;59.20
11538;DHT22;50159;49.426;11.182;2023-02-26T16:27:41;1.60;59.20
11538;DHT22;50159;49.426;11.182;2023-02-26T16:30:34;1.40;59.70
11538;DHT22;50159;49.426;11.182;2023-02-26T16:33:05;1.30;60.90
11538;DHT22;50159;49.426;11.182;2023-02-26T16:35:42;1.10;60.20
11538;DHT22;50159;49.426;11.182;2023-02-26T16:38:18;1.10;60.90
11538;DHT22;50159;49.426;11.182;2023-02-26T16:40:58;1.00;61.50
11538;DHT22;50159;49.426;11.182;2023-02-26T16:46:42;0.80;62.70
11538;DHT22;50159;49.426;11.182;2023-02-26T16:49:24;0.80;63.80
11538;DHT22;50159;49.426;11.182;2023-02-26T16:51:55;0.70;64.30
11538;DHT22;50159;49.426;11.182;2023-02-26T16:54:26;0.60;64.60
11538;DHT22;50159;49.426;11.182;2023-02-26T16:57:10;0.50;65.20
11538;DHT22;50159;49.426;11.182;2023-02-26T16:59:47;0.50;66.00
11538;DHT22;50159;49.426;11.182;2023-02-26T17:02:21;0.40;66.80
11538;DHT22;50159;49.426;11.182;2023-02-26T17:04:53;0.40;67.20
11538;DHT22;50159;49.426;11.182;2023-02-26T17:07:33;0.30;67.50
11538;DHT22;50159;49.426;11.182;2023-02-26T17:10:18;0.30;67.60
11538;DHT22;50159;49.426;11.182;2023-02-26T17:12:52;0.20;67.90
11538;DHT22;50159;49.426;11.182;2023-02-26T17:15:26;0.10;68.20
11538;DHT22;50159;49.426;11.182;2023-02-26T17:17:56;0.10;69.00
11538;DHT22;50159;49.426;11.182;2023-02-26T17:20:24;0.10;69.30
11538;DHT22;50159;49.426;11.182;2023-02-26T17:22:54;0.00;69.30
11538;DHT22;50159;49.426;11.182;2023-02-26T17:25:32;0.00;69.30
11538;DHT22;50159;49.426;11.182;2023-02-26T17:28:02;-0.10;69.60
11538;DHT22;50159;49.426;11.182;2023-02-26T17:30:29;-0.10;69.70
11538;DHT22;50159;49.426;11.182;2023-02-26T17:33:00;-0.10;70.00
11538;DHT22;50159;49.426;11.182;2023-02-26T17:35:29;-0.10;70.10
11538;DHT22;50159;49.426;11.182;2023-02-26T17:37:57;-0.20;70.20
11538;DHT22;50159;49.426;11.182;2023-02-26T17:40:27;-0.20;70.50
11538;DHT22;50159;49.426;11.182;2023-02-26T17:42:57;-0.20;70.50
11538;DHT22;50159;49.426;11.182;2023-02-26T17:45:25;-0.30;70.60
11538;DHT22;50159;49.426;11.182;2023-02-26T17:47:52;-0.30;71.10
11538;DHT22;50159;49.426;11.182;2023-02-26T17:50:24;-0.20;71.70
11538;DHT22;50159;49.426;11.182;2023-02-26T17:53:00;-0.30;71.10
11538;DHT22;50159;49.426;11.182;2023-02-26T17:55:28;-0.30;71.40
11538;DHT22;50159;49.426;11.182;2023-02-26T17:57:55;-0.30;71.70
11538;DHT22;50159;49.426;11.182;2023-02-26T18:00:23;-0.40;72.00
11538;DHT22;50159;49.426;11.182;2023-02-26T18:02:51;-0.40;72.60
11538;DHT22;50159;49.426;11.182;2023-02-26T18:05:18;-0.40;73.10
11538;DHT22;50159;49.426;11.182;2023-02-26T18:07:46;-0.40;74.00
11538;DHT22;50159;49.426;11.182;2023-02-26T18:10:20;-0.40;74.20
11538;DHT22;50159;49.426;11.182;2023-02-26T18:12:50;-0.40;74.50
11538;DHT22;50159;49.426;11.182;2023-02-26T18:15:17;-0.50;74.70
11538;DHT22;50159;49.426;11.182;2023-02-26T18:17:44;-0.50;75.20
11538;DHT22;50159;49.426;11.182;2023-02-26T18:20:18;-0.50;76.00
11538;DHT22;50159;49.426;11.182;2023-02-26T18:22:49;-0.50;76.30
11538;DHT22;50159;49.426;11.182;2023-02-26T18:25:17;-0.50;76.50
11538;DHT22;50159;49.426;11.182;2023-02-26T18:27:44;-0.60;76.80
11538;DHT22;50159;49.426;11.182;2023-02-26T18:30:28;-0.60;77.50
11538;DHT22;50159;49.426;11.182;2023-02-26T18:32:56;-0.60;78.20
11538;DHT22;50159;49.426;11.182;2023-02-26T18:35:25;-0.60;78.50
11538;DHT22;50159;49.426;11.182;2023-02-26T18:37:54;-0.70;78.90
11538;DHT22;50159;49.426;11.182;2023-02-26T18:40:23;-0.70;79.50
11538;DHT22;50159;49.426;11.182;2023-02-26T18:42:52;-0.70;80.20
11538;DHT22;50159;49.426;11.182;2023-02-26T18:45:19;-0.70;80.80
11538;DHT22;50159;49.426;11.182;2023-02-26T18:47:47;-0.70;81.20